createdAt,value
2022-09-17T00:01:08.553Z,13.61
2022-09-17T00:03:35.980Z,13.60
2022-09-17T00:06:08.698Z,13.60
2022-09-17T00:08:37.428Z,13.61
2022-09-17T00:11:12.550Z,13.63
2022-09-17T00:13:39.451Z,13.63
2022-09-17T00:16:06.281Z,13.61
2022-09-17T00:18:33.121Z,13.61
2022-09-17T00:20:59.684Z,13.60
2022-09-17T00:23:26.187Z,13.60
2022-09-17T00:25:52.721Z,13.58
2022-09-17T00:28:19.223Z,13.61
2022-09-17T00:30:46.153Z,13.58
2022-09-17T00:33:15.110Z,13.57
2022-09-17T00:35:42.037Z,13.58
2022-09-17T00:38:09.501Z,13.58
2022-09-17T00:40:36.575Z,13.54
2022-09-17T00:43:04.764Z,13.51
2022-09-17T00:45:31.560Z,13.41
2022-09-17T00:48:00.746Z,13.45
2022-09-17T00:50:34.910Z,13.46
2022-09-17T00:53:07.200Z,13.40
2022-09-17T00:55:38.746Z,13.35
2022-09-17T00:58:08.218Z,13.34
2022-09-17T01:00:34.879Z,13.32
2022-09-17T01:03:01.434Z,13.29
2022-09-17T01:05:32.322Z,13.25
2022-09-17T01:08:21.340Z,13.17
2022-09-17T01:11:10.983Z,13.15
2022-09-17T01:13:43.337Z,13.16
2022-09-17T01:16:20.058Z,13.13
2022-09-17T01:19:08.442Z,13.09
2022-09-17T01:22:13.449Z,13.04
2022-09-17T01:25:03.186Z,13.02
2022-09-17T01:27:58.314Z,13.02
2022-09-17T01:30:52.721Z,13.01
2022-09-17T01:33:51.932Z,12.99
2022-09-17T01:37:07.995Z,12.94
2022-09-17T01:39:50.028Z,12.92
2022-09-17T01:42:37.785Z,12.90
2022-09-17T01:45:13.555Z,12.87
2022-09-17T01:47:47.839Z,12.85
2022-09-17T01:50:26.018Z,12.83
2022-09-17T01:52:55.603Z,12.80
2022-09-17T01:55:27.095Z,12.79
2022-09-17T01:58:04.271Z,12.77
2022-09-17T02:00:31.243Z,12.73
2022-09-17T02:03:05.564Z,12.73
2022-09-17T02:05:41.922Z,12.72
2022-09-17T02:08:17.034Z,12.69
2022-09-17T02:10:48.331Z,12.64
2022-09-17T02:13:22.748Z,12.62
2022-09-17T02:15:56.397Z,12.60
2022-09-17T02:18:28.348Z,12.57
2022-09-17T02:21:11.342Z,12.57
2022-09-17T02:23:47.736Z,12.57
2022-09-17T02:26:20.552Z,12.59
2022-09-17T02:29:07.067Z,12.59
2022-09-17T02:31:33.731Z,12.62
2022-09-17T02:34:02.986Z,12.65
2022-09-17T02:36:30.556Z,12.68
2022-09-17T02:39:02.394Z,12.68
2022-09-17T02:41:37.409Z,12.72
2022-09-17T02:44:36.482Z,12.69
2022-09-17T02:47:12.267Z,12.74
2022-09-17T02:50:00.062Z,12.75
2022-09-17T02:53:03.738Z,12.70
2022-09-17T02:55:30.141Z,12.70
2022-09-17T02:58:16.537Z,12.68
2022-09-17T03:00:44.967Z,12.66
2022-09-17T03:03:29.480Z,12.65
2022-09-17T03:05:56.199Z,12.62
2022-09-17T03:08:39.244Z,12.60
2022-09-17T03:11:06.799Z,12.56
2022-09-17T03:13:33.279Z,12.54
2022-09-17T03:15:59.933Z,12.51
2022-09-17T03:18:26.408Z,12.52
2022-09-17T03:20:52.930Z,12.50
2022-09-17T03:23:19.448Z,12.45
2022-09-17T03:25:46.829Z,12.42
2022-09-17T03:28:13.338Z,12.38
2022-09-17T03:30:39.779Z,12.39
2022-09-17T03:33:06.321Z,12.33
2022-09-17T03:35:32.834Z,12.31
2022-09-17T03:37:59.348Z,12.29
2022-09-17T03:40:26.023Z,12.28
2022-09-17T03:42:52.618Z,12.24
2022-09-17T03:45:19.085Z,12.23
2022-09-17T03:47:45.659Z,12.21
2022-09-17T03:50:12.191Z,12.19
2022-09-17T03:52:38.654Z,12.17
2022-09-17T03:55:05.728Z,12.14
2022-09-17T03:57:32.270Z,12.08
2022-09-17T03:59:58.920Z,12.06
2022-09-17T04:02:25.571Z,12.03
2022-09-17T04:04:52.149Z,12.02
2022-09-17T04:07:18.606Z,11.98
2022-09-17T04:09:45.099Z,11.98
2022-09-17T04:12:11.644Z,11.96
2022-09-17T04:14:38.232Z,11.94
2022-09-17T04:17:04.811Z,11.94
2022-09-17T04:19:31.296Z,11.94
2022-09-17T04:21:57.977Z,11.95
2022-09-17T04:24:27.154Z,11.94
2022-09-17T04:26:53.783Z,11.93
2022-09-17T04:29:20.225Z,11.93
2022-09-17T04:31:46.813Z,11.94
2022-09-17T04:34:13.371Z,11.94
2022-09-17T04:36:39.923Z,11.94
2022-09-17T04:39:06.546Z,11.97
2022-09-17T04:41:33.042Z,11.98
2022-09-17T04:43:59.738Z,12.00
2022-09-17T04:46:26.365Z,12.00
2022-09-17T04:48:52.823Z,12.01
2022-09-17T04:51:19.438Z,12.01
2022-09-17T04:53:45.944Z,11.98
2022-09-17T04:56:12.407Z,11.98
2022-09-17T04:58:38.924Z,11.97
2022-09-17T05:01:05.801Z,11.98
2022-09-17T05:03:32.352Z,11.96
2022-09-17T05:05:58.836Z,11.96
2022-09-17T05:08:25.318Z,11.94
2022-09-17T05:10:51.887Z,11.94
2022-09-17T05:13:18.415Z,11.93
2022-09-17T05:15:45.085Z,11.93
2022-09-17T05:18:14.466Z,11.91
2022-09-17T05:20:40.952Z,11.90
2022-09-17T05:23:07.523Z,11.91
2022-09-17T05:25:34.201Z,11.90
2022-09-17T05:28:01.147Z,11.91
2022-09-17T05:30:27.697Z,11.90
2022-09-17T05:33:02.038Z,11.88
2022-09-17T05:35:29.758Z,11.89
2022-09-17T05:38:00.675Z,11.90
2022-09-17T05:40:28.239Z,11.93
2022-09-17T05:42:59.060Z,11.92
2022-09-17T05:45:26.060Z,11.93
2022-09-17T05:48:00.477Z,11.94
2022-09-17T05:50:28.886Z,11.97
2022-09-17T05:52:55.907Z,12.00
2022-09-17T05:55:23.771Z,12.02
2022-09-17T05:57:51.028Z,12.03
2022-09-17T06:00:18.238Z,12.05
2022-09-17T06:02:44.900Z,12.08
2022-09-17T06:05:11.615Z,12.07
2022-09-17T06:07:38.997Z,12.10
2022-09-17T06:10:06.700Z,12.10
2022-09-17T06:12:33.172Z,12.11
2022-09-17T06:14:59.680Z,12.09
2022-09-17T06:17:26.132Z,12.08
2022-09-17T06:19:52.644Z,12.06
2022-09-17T06:22:19.852Z,12.02
2022-09-17T06:24:46.587Z,11.98
2022-09-17T06:27:13.094Z,12.00
2022-09-17T06:29:39.998Z,12.01
2022-09-17T06:32:08.731Z,11.96
2022-09-17T06:34:35.181Z,11.98
2022-09-17T06:37:01.659Z,11.97
2022-09-17T06:39:28.315Z,12.00
2022-09-17T06:41:54.819Z,12.04
2022-09-17T06:44:21.262Z,12.06
2022-09-17T06:46:50.103Z,12.09
2022-09-17T06:49:17.398Z,12.12
2022-09-17T06:51:44.567Z,12.16
2022-09-17T06:54:11.444Z,12.18
2022-09-17T06:56:37.924Z,12.24
2022-09-17T06:59:04.736Z,12.27
2022-09-17T07:01:31.300Z,12.33
2022-09-17T07:03:58.213Z,12.34
2022-09-17T07:06:24.737Z,12.39
2022-09-17T07:08:51.208Z,12.38
2022-09-17T07:11:17.754Z,12.41
2022-09-17T07:13:44.276Z,12.41
2022-09-17T07:16:10.895Z,12.42
2022-09-17T07:18:37.467Z,12.43
2022-09-17T07:21:05.837Z,12.44
2022-09-17T07:23:34.982Z,12.48
2022-09-17T07:26:05.587Z,12.49
2022-09-17T07:28:32.303Z,12.48
2022-09-17T07:31:02.353Z,12.49
2022-09-17T07:33:28.878Z,12.48
2022-09-17T07:35:58.195Z,12.48
2022-09-17T07:38:26.091Z,12.48
2022-09-17T07:41:04.559Z,12.45
2022-09-17T07:43:34.124Z,12.43
2022-09-17T07:46:03.143Z,12.40
2022-09-17T07:48:30.499Z,12.36
2022-09-17T07:50:57.547Z,12.34
2022-09-17T07:53:24.742Z,12.33
2022-09-17T07:55:59.305Z,12.32
2022-09-17T07:58:43.807Z,12.37
2022-09-17T08:01:12.429Z,12.42
2022-09-17T08:03:40.039Z,12.47
2022-09-17T08:06:09.080Z,12.52
2022-09-17T08:08:36.946Z,12.59
2022-09-17T08:11:08.631Z,12.62
2022-09-17T08:13:35.194Z,12.67
2022-09-17T08:16:04.890Z,12.76
2022-09-17T08:18:31.944Z,12.81
2022-09-17T08:21:00.044Z,12.86
2022-09-17T08:23:27.116Z,12.83
2022-09-17T08:25:55.456Z,12.99
2022-09-17T08:28:25.945Z,13.04
2022-09-17T08:30:53.537Z,13.13
2022-09-17T08:33:21.150Z,13.20
2022-09-17T08:35:55.352Z,13.33
2022-09-17T08:38:22.063Z,13.42
2022-09-17T08:41:07.260Z,13.53
2022-09-17T08:43:41.135Z,13.66
2022-09-17T08:46:11.022Z,13.75
2022-09-17T08:48:43.275Z,13.84
2022-09-17T08:51:22.784Z,13.89
2022-09-17T08:54:02.640Z,13.97
2022-09-17T08:56:33.952Z,13.97
2022-09-17T08:59:11.433Z,13.95
2022-09-17T09:01:45.559Z,13.96
2022-09-17T09:04:23.968Z,13.94
2022-09-17T09:06:55.586Z,13.93
2022-09-17T09:09:28.403Z,13.91
2022-09-17T09:12:03.364Z,13.88
2022-09-17T09:14:44.616Z,13.84
2022-09-17T09:17:11.421Z,13.82
2022-09-17T09:19:43.893Z,13.76
2022-09-17T09:22:33.915Z,13.72
2022-09-17T09:25:20.444Z,13.67
2022-09-17T09:28:08.447Z,13.59
2022-09-17T09:30:55.341Z,13.59
2022-09-17T09:33:30.104Z,13.57
2022-09-17T09:35:56.774Z,13.54
2022-09-17T09:38:32.651Z,13.47
2022-09-17T09:41:19.380Z,13.43
2022-09-17T09:44:12.652Z,13.40
2022-09-17T09:46:52.170Z,13.38
2022-09-17T09:49:55.795Z,13.37
2022-09-17T09:52:31.303Z,13.34
2022-09-17T09:55:17.315Z,13.32
2022-09-17T09:57:49.660Z,13.31
2022-09-17T10:00:31.555Z,13.25
2022-09-17T10:03:10.354Z,13.23
2022-09-17T10:05:36.919Z,13.14
2022-09-17T10:08:14.383Z,13.06
2022-09-17T10:11:20.194Z,12.96
2022-09-17T10:13:46.685Z,12.94
2022-09-17T10:16:16.333Z,12.85
2022-09-17T10:18:43.013Z,12.84
2022-09-17T10:21:38.800Z,12.80
2022-09-17T10:24:21.332Z,12.79
2022-09-17T10:26:48.011Z,12.78
2022-09-17T10:29:18.343Z,12.83
2022-09-17T10:31:52.820Z,12.80
2022-09-17T10:34:27.888Z,12.73
2022-09-17T10:36:55.283Z,12.69
2022-09-17T10:39:35.311Z,12.61
2022-09-17T10:42:03.256Z,12.57
2022-09-17T10:44:32.063Z,12.53
2022-09-17T10:47:10.949Z,12.48
2022-09-17T10:49:41.360Z,12.48
2022-09-17T10:52:18.167Z,12.45
2022-09-17T10:55:01.740Z,12.44
2022-09-17T10:57:51.289Z,12.44
2022-09-17T11:00:20.576Z,12.47
2022-09-17T11:03:34.921Z,12.53
2022-09-17T11:06:36.735Z,12.59
2022-09-17T11:09:29.666Z,12.64
2022-09-17T11:12:02.296Z,12.66
2022-09-17T11:14:46.719Z,12.63
2022-09-17T11:17:50.268Z,12.65
2022-09-17T11:20:37.186Z,12.67
2022-09-17T11:23:41.108Z,12.65
2022-09-17T11:26:33.612Z,12.66
2022-09-17T11:29:27.263Z,12.66
2022-09-17T11:32:26.685Z,12.63
2022-09-17T11:35:09.536Z,12.61
2022-09-17T11:37:42.008Z,12.59
2022-09-17T11:40:36.877Z,12.57
2022-09-17T11:43:27.724Z,12.56
2022-09-17T11:46:02.420Z,12.61
2022-09-17T11:48:52.522Z,12.61
2022-09-17T11:51:32.037Z,12.63
2022-09-17T11:54:17.534Z,12.60
2022-09-17T11:56:47.766Z,12.49
2022-09-17T11:59:26.266Z,12.31
2022-09-17T12:01:54.720Z,12.16
2022-09-17T12:04:46.038Z,12.00
2022-09-17T12:07:15.347Z,11.88
2022-09-17T12:09:43.796Z,11.84
2022-09-17T12:12:47.650Z,11.80
2022-09-17T12:15:26.834Z,11.79
2022-09-17T12:18:31.027Z,11.87
2022-09-17T12:21:00.441Z,11.95
2022-09-17T12:23:36.377Z,12.05
2022-09-17T12:26:14.131Z,12.21
2022-09-17T12:29:15.994Z,12.36
2022-09-17T12:31:46.426Z,12.50
2022-09-17T12:34:48.008Z,12.60
2022-09-17T12:37:21.060Z,12.73
2022-09-17T12:40:29.153Z,12.78
2022-09-17T12:43:20.003Z,12.81
2022-09-17T12:46:25.390Z,12.77
2022-09-17T12:49:18.308Z,12.77
2022-09-17T12:51:55.559Z,12.79
2022-09-17T12:54:45.464Z,12.83
2022-09-17T12:57:30.953Z,12.86
2022-09-17T13:00:08.156Z,12.92
2022-09-17T13:02:45.280Z,13.00
2022-09-17T13:05:35.192Z,13.04
2022-09-17T13:08:26.825Z,13.13
2022-09-17T13:11:00.404Z,13.25
2022-09-17T13:13:52.832Z,13.34
2022-09-17T13:16:43.037Z,13.45
2022-09-17T13:19:36.250Z,13.56
2022-09-17T13:22:20.531Z,13.70
2022-09-17T13:25:00.998Z,13.78
2022-09-17T13:27:27.974Z,13.81
2022-09-17T13:29:54.406Z,13.78
2022-09-17T13:32:32.913Z,13.79
2022-09-17T13:35:22.305Z,13.77
2022-09-17T13:37:48.806Z,13.77
2022-09-17T13:40:25.909Z,13.75
2022-09-17T13:42:54.434Z,13.72
2022-09-17T13:45:23.208Z,13.71
2022-09-17T13:47:52.194Z,13.70
2022-09-17T13:50:30.505Z,13.75
2022-09-17T13:52:58.889Z,13.78
2022-09-17T13:55:36.141Z,13.81
2022-09-17T13:58:12.264Z,13.85
2022-09-17T14:00:48.107Z,13.92
2022-09-17T14:03:30.055Z,13.92
2022-09-17T14:06:05.776Z,13.95
2022-09-17T14:08:44.354Z,13.95
2022-09-17T14:11:22.878Z,13.93
2022-09-17T14:14:04.317Z,13.93
2022-09-17T14:16:30.778Z,13.92
2022-09-17T14:19:01.492Z,13.95
2022-09-17T14:21:34.843Z,13.96
2022-09-17T14:24:04.403Z,13.96
2022-09-17T14:27:14.786Z,13.94
2022-09-17T14:30:01.280Z,13.97
2022-09-17T14:32:30.076Z,13.97
2022-09-17T14:34:57.005Z,14.02
2022-09-17T14:37:24.231Z,14.10
2022-09-17T14:39:52.434Z,14.09
2022-09-17T14:42:27.539Z,14.15
2022-09-17T14:45:26.795Z,14.18
2022-09-17T14:48:19.276Z,14.26
2022-09-17T14:50:45.909Z,14.38
2022-09-17T14:53:17.679Z,14.43
2022-09-17T14:55:51.295Z,14.49
2022-09-17T14:58:37.533Z,14.47
2022-09-17T15:01:04.127Z,14.52
2022-09-17T15:03:30.614Z,14.50
2022-09-17T15:05:57.274Z,14.51
2022-09-17T15:08:28.087Z,14.49
2022-09-17T15:10:57.891Z,14.48
2022-09-17T15:13:50.761Z,14.44
2022-09-17T15:16:23.542Z,14.41
2022-09-17T15:18:55.892Z,14.35
2022-09-17T15:21:36.411Z,14.30
2022-09-17T15:24:43.449Z,14.23
2022-09-17T15:27:41.445Z,14.17
2022-09-17T15:30:15.730Z,14.13
2022-09-17T15:32:48.557Z,14.10
2022-09-17T15:35:15.401Z,14.08
2022-09-17T15:38:18.443Z,14.02
2022-09-17T15:40:40.590Z,13.95
2022-09-17T15:43:30.372Z,13.91
2022-09-17T15:45:57.877Z,13.84
2022-09-17T15:48:27.326Z,13.78
2022-09-17T15:50:59.827Z,13.70
2022-09-17T15:53:33.406Z,13.64
2022-09-17T15:56:16.425Z,13.59
2022-09-17T15:58:42.951Z,13.51
2022-09-17T16:01:14.915Z,13.44
2022-09-17T16:03:41.459Z,13.38
2022-09-17T16:06:20.061Z,13.31
2022-09-17T16:08:52.013Z,13.28
2022-09-17T16:11:31.797Z,13.21
2022-09-17T16:14:00.970Z,13.17
2022-09-17T16:16:35.399Z,13.12
2022-09-17T16:19:02.339Z,13.07
2022-09-17T16:21:29.041Z,13.04
2022-09-17T16:23:55.604Z,13.01
2022-09-17T16:26:27.961Z,12.96
2022-09-17T16:28:59.805Z,12.93
2022-09-17T16:31:26.331Z,12.91
2022-09-17T16:33:52.941Z,12.84
2022-09-17T16:36:19.455Z,12.83
2022-09-17T16:38:45.921Z,12.80
2022-09-17T16:41:12.467Z,12.78
2022-09-17T16:43:39.136Z,12.77
2022-09-17T16:46:10.677Z,12.70
2022-09-17T16:48:38.236Z,12.72
2022-09-17T16:51:09.104Z,12.70
2022-09-17T16:53:35.683Z,12.68
2022-09-17T16:56:06.516Z,12.70
2022-09-17T16:58:33.025Z,12.71
2022-09-17T17:00:59.584Z,12.68
2022-09-17T17:03:26.220Z,12.67
2022-09-17T17:05:52.721Z,12.65
2022-09-17T17:08:19.264Z,12.63
2022-09-17T17:10:49.709Z,12.57
2022-09-17T17:13:16.527Z,12.52
2022-09-17T17:15:43.056Z,12.46
2022-09-17T17:18:09.559Z,12.41
2022-09-17T17:20:36.401Z,12.33
2022-09-17T17:23:02.931Z,12.25
2022-09-17T17:25:30.671Z,12.15
2022-09-17T17:27:57.240Z,12.08
2022-09-17T17:30:23.900Z,12.00
2022-09-17T17:32:52.363Z,11.93
2022-09-17T17:35:20.275Z,11.87
2022-09-17T17:37:46.793Z,11.78
2022-09-17T17:40:13.344Z,11.71
2022-09-17T17:42:39.852Z,11.63
2022-09-17T17:45:07.180Z,11.57
2022-09-17T17:47:34.325Z,11.49
2022-09-17T17:50:00.857Z,11.45
2022-09-17T17:52:27.434Z,11.40
2022-09-17T17:54:53.971Z,11.34
2022-09-17T17:57:20.490Z,11.35
2022-09-17T17:59:46.975Z,11.32
2022-09-17T18:02:13.574Z,11.31
2022-09-17T18:04:40.185Z,11.33
2022-09-17T18:07:06.697Z,11.35
2022-09-17T18:09:33.882Z,11.35
2022-09-17T18:12:00.365Z,11.35
2022-09-17T18:14:26.909Z,11.34
2022-09-17T18:16:53.388Z,11.34
2022-09-17T18:19:19.938Z,11.33
2022-09-17T18:21:46.427Z,11.35
2022-09-17T18:24:12.932Z,11.37
2022-09-17T18:26:39.533Z,11.37
2022-09-17T18:29:08.154Z,11.37
2022-09-17T18:31:35.661Z,11.36
2022-09-17T18:34:09.667Z,11.38
2022-09-17T18:36:37.270Z,11.40
2022-09-17T18:39:33.177Z,11.41
2022-09-17T18:41:52.569Z,11.43
2022-09-17T18:44:19.166Z,11.40
2022-09-17T18:46:45.722Z,11.41
2022-09-17T18:49:12.302Z,11.41
2022-09-17T18:51:38.830Z,11.40
2022-09-17T18:54:05.385Z,11.38
2022-09-17T18:56:32.341Z,11.36
2022-09-17T18:59:03.272Z,11.34
2022-09-17T19:01:32.530Z,11.34
2022-09-17T19:03:59.774Z,11.33
2022-09-17T19:06:27.761Z,11.30
2022-09-17T19:08:58.935Z,11.25
2022-09-17T19:11:25.439Z,11.24
2022-09-17T19:13:51.921Z,11.24
2022-09-17T19:16:18.513Z,11.22
2022-09-17T19:18:45.109Z,11.21
2022-09-17T19:21:19.807Z,11.20
2022-09-17T19:23:48.663Z,11.19
2022-09-17T19:26:17.683Z,11.17
2022-09-17T19:28:44.729Z,11.16
2022-09-17T19:31:13.842Z,11.16
2022-09-17T19:33:40.645Z,11.16
2022-09-17T19:36:10.523Z,11.16
2022-09-17T19:38:37.958Z,11.17
2022-09-17T19:41:07.112Z,11.13
2022-09-17T19:43:33.710Z,11.14
2022-09-17T19:46:06.011Z,11.14
2022-09-17T19:48:33.789Z,11.13
2022-09-17T19:51:00.249Z,11.12
2022-09-17T19:53:26.735Z,11.14
2022-09-17T19:55:53.468Z,11.15
2022-09-17T19:58:20.409Z,11.15
2022-09-17T20:00:47.090Z,11.13
2022-09-17T20:03:13.647Z,11.12
2022-09-17T20:05:40.193Z,11.13
2022-09-17T20:08:06.737Z,11.13
2022-09-17T20:10:36.295Z,11.13
2022-09-17T20:13:03.429Z,11.13
2022-09-17T20:15:29.990Z,11.12
2022-09-17T20:17:56.586Z,11.14
2022-09-17T20:20:23.093Z,11.14
2022-09-17T20:22:51.557Z,11.12
2022-09-17T20:25:18.059Z,11.13
2022-09-17T20:27:44.577Z,11.12
2022-09-17T20:30:11.384Z,11.10
2022-09-17T20:32:37.852Z,11.10
2022-09-17T20:35:04.487Z,11.11
2022-09-17T20:38:12.308Z,11.13
2022-09-17T20:40:17.605Z,11.14
2022-09-17T20:42:44.122Z,11.14
2022-09-17T20:45:10.726Z,11.18
2022-09-17T20:47:37.195Z,11.21
2022-09-17T20:50:03.879Z,11.21
2022-09-17T20:52:30.336Z,11.16
2022-09-17T20:54:56.835Z,11.14
2022-09-17T20:57:23.465Z,11.12
2022-09-17T20:59:50.007Z,11.05
2022-09-17T21:02:16.862Z,11.01
2022-09-17T21:04:43.394Z,10.94
2022-09-17T21:07:09.840Z,10.92
2022-09-17T21:09:36.445Z,10.86
2022-09-17T21:12:03.009Z,10.83
2022-09-17T21:14:29.474Z,10.80
2022-09-17T21:16:55.959Z,10.80
2022-09-17T21:19:22.472Z,10.78
2022-09-17T21:21:48.943Z,10.77
2022-09-17T21:24:15.413Z,10.75
2022-09-17T21:26:41.939Z,10.73
2022-09-17T21:29:08.404Z,10.71
2022-09-17T21:31:36.318Z,10.71
2022-09-17T21:34:05.346Z,10.70
2022-09-17T21:36:35.797Z,10.69
2022-09-17T21:39:05.602Z,10.69
2022-09-17T21:41:32.650Z,10.67
2022-09-17T21:43:59.522Z,10.66
2022-09-17T21:46:28.742Z,10.61
2022-09-17T21:48:57.841Z,10.59
2022-09-17T21:51:27.317Z,10.52
2022-09-17T21:53:55.585Z,10.47
2022-09-17T21:56:22.732Z,10.44
2022-09-17T21:58:58.333Z,10.38
2022-09-17T22:01:28.247Z,10.33
2022-09-17T22:03:55.651Z,10.31
2022-09-17T22:06:27.348Z,10.30
2022-09-17T22:08:54.403Z,10.23
2022-09-17T22:11:26.195Z,10.16
2022-09-17T22:14:09.307Z,10.08
2022-09-17T22:16:38.772Z,10.04
2022-09-17T22:19:06.492Z,10.02
2022-09-17T22:21:36.858Z,9.93
2022-09-17T22:24:04.760Z,9.89
2022-09-17T22:26:34.084Z,9.85
2022-09-17T22:29:06.368Z,9.78
2022-09-17T22:31:33.166Z,9.76
2022-09-17T22:33:59.827Z,9.71
2022-09-17T22:36:28.458Z,9.72
2022-09-17T22:38:57.452Z,9.66
2022-09-17T22:41:31.936Z,9.66
2022-09-17T22:44:04.183Z,9.61
2022-09-17T22:46:40.758Z,9.56
2022-09-17T22:49:09.556Z,9.56
2022-09-17T22:51:36.700Z,9.53
2022-09-17T22:54:03.500Z,9.52
2022-09-17T22:56:30.378Z,9.51
2022-09-17T22:58:58.396Z,9.49
2022-09-17T23:01:31.051Z,9.46
2022-09-17T23:03:59.099Z,9.44
2022-09-17T23:06:28.828Z,9.38
2022-09-17T23:08:56.142Z,9.37
2022-09-17T23:11:30.021Z,9.34
2022-09-17T23:13:59.757Z,9.31
2022-09-17T23:16:26.322Z,9.28
2022-09-17T23:18:53.065Z,9.25
2022-09-17T23:21:20.293Z,9.22
2022-09-17T23:23:49.635Z,9.18
2022-09-17T23:26:25.474Z,9.14
2022-09-17T23:28:52.380Z,9.12
2022-09-17T23:31:25.817Z,9.12
2022-09-17T23:33:53.499Z,9.14
2022-09-17T23:36:31.747Z,9.12
2022-09-17T23:38:58.995Z,9.13
2022-09-17T23:41:40.041Z,9.10
2022-09-17T23:44:13.748Z,9.10
2022-09-17T23:46:41.730Z,9.12
2022-09-17T23:49:11.097Z,9.13
2022-09-17T23:51:37.591Z,9.14
2022-09-17T23:54:04.622Z,9.16
2022-09-17T23:56:31.155Z,9.15
2022-09-17T23:59:00.262Z,9.15
